sensor_id;sensor_type;location;lat;lon;timestamp;P1;durP1;ratioP1;P2;durP2;ratioP2
39448;SDS011;25151;45.566;9.382;2022-12-07T00:02:53;4.80;;;3.72;;
39448;SDS011;25151;45.566;9.382;2022-12-07T00:05:57;3.78;;;3.38;;
39448;SDS011;25151;45.566;9.382;2022-12-07T00:08:58;4.65;;;3.53;;
39448;SDS011;25151;45.566;9.382;2022-12-07T00:11:59;5.05;;;4.18;;
39448;SDS011;25151;45.566;9.382;2022-12-07T00:15:00;5.07;;;3.40;;
39448;SDS011;25151;45.566;9.382;2022-12-07T00:18:00;4.57;;;3.30;;
39448;SDS011;25151;45.566;9.382;2022-12-07T00:21:06;5.00;;;3.92;;
39448;SDS011;25151;45.566;9.382;2022-12-07T00:24:11;5.32;;;3.70;;
39448;SDS011;25151;45.566;9.382;2022-12-07T00:27:12;4.45;;;3.58;;
39448;SDS011;25151;45.566;9.382;2022-12-07T00:30:13;4.35;;;3.85;;
39448;SDS011;25151;45.566;9.382;2022-12-07T00:33:14;5.75;;;4.00;;
39448;SDS011;25151;45.566;9.382;2022-12-07T00:36:16;4.65;;;3.72;;
39448;SDS011;25151;45.566;9.382;2022-12-07T00:39:18;5.05;;;3.88;;
39448;SDS011;25151;45.566;9.382;2022-12-07T00:42:19;5.25;;;3.75;;
39448;SDS011;25151;45.566;9.382;2022-12-07T00:45:20;5.30;;;3.42;;
39448;SDS011;25151;45.566;9.382;2022-12-07T00:48:21;5.03;;;3.50;;
39448;SDS011;25151;45.566;9.382;2022-12-07T00:51:23;6.55;;;4.32;;
39448;SDS011;25151;45.566;9.382;2022-12-07T00:54:25;5.68;;;4.45;;
39448;SDS011;25151;45.566;9.382;2022-12-07T00:57:25;5.88;;;4.75;;
39448;SDS011;25151;45.566;9.382;2022-12-07T01:00:26;5.57;;;4.35;;
39448;SDS011;25151;45.566;9.382;2022-12-07T01:03:27;6.40;;;4.40;;
39448;SDS011;25151;45.566;9.382;2022-12-07T01:06:29;4.72;;;3.70;;
39448;SDS011;25151;45.566;9.382;2022-12-07T01:09:30;4.40;;;3.88;;
39448;SDS011;25151;45.566;9.382;2022-12-07T01:12:30;4.47;;;3.80;;
39448;SDS011;25151;45.566;9.382;2022-12-07T01:15:31;5.28;;;4.20;;
39448;SDS011;25151;45.566;9.382;2022-12-07T01:18:33;7.25;;;4.18;;
39448;SDS011;25151;45.566;9.382;2022-12-07T01:21:35;4.47;;;3.83;;
39448;SDS011;25151;45.566;9.382;2022-12-07T01:24:37;6.30;;;3.90;;
39448;SDS011;25151;45.566;9.382;2022-12-07T01:27:38;6.63;;;5.20;;
39448;SDS011;25151;45.566;9.382;2022-12-07T01:30:38;6.97;;;4.20;;
39448;SDS011;25151;45.566;9.382;2022-12-07T01:33:39;5.20;;;4.50;;
39448;SDS011;25151;45.566;9.382;2022-12-07T01:36:40;6.90;;;4.38;;
39448;SDS011;25151;45.566;9.382;2022-12-07T01:39:41;4.63;;;4.15;;
39448;SDS011;25151;45.566;9.382;2022-12-07T01:42:42;5.85;;;4.15;;
39448;SDS011;25151;45.566;9.382;2022-12-07T01:45:42;6.57;;;4.13;;
39448;SDS011;25151;45.566;9.382;2022-12-07T01:48:43;5.93;;;4.57;;
39448;SDS011;25151;45.566;9.382;2022-12-07T01:51:44;5.18;;;3.85;;
39448;SDS011;25151;45.566;9.382;2022-12-07T01:54:48;4.32;;;3.70;;
39448;SDS011;25151;45.566;9.382;2022-12-07T01:57:53;4.40;;;3.70;;
39448;SDS011;25151;45.566;9.382;2022-12-07T02:00:55;4.20;;;3.75;;
39448;SDS011;25151;45.566;9.382;2022-12-07T02:03:56;4.15;;;3.60;;
39448;SDS011;25151;45.566;9.382;2022-12-07T02:06:58;5.32;;;4.25;;
39448;SDS011;25151;45.566;9.382;2022-12-07T02:13:33;4.85;;;4.15;;
39448;SDS011;25151;45.566;9.382;2022-12-07T02:23:23;4.30;;;3.90;;
39448;SDS011;25151;45.566;9.382;2022-12-07T02:30:05;5.55;;;3.88;;
39448;SDS011;25151;45.566;9.382;2022-12-07T02:33:14;5.53;;;4.50;;
39448;SDS011;25151;45.566;9.382;2022-12-07T02:36:30;5.53;;;4.00;;
39448;SDS011;25151;45.566;9.382;2022-12-07T02:39:44;5.57;;;4.25;;
39448;SDS011;25151;45.566;9.382;2022-12-07T02:43:35;5.05;;;4.22;;
39448;SDS011;25151;45.566;9.382;2022-12-07T02:46:30;4.28;;;3.80;;
39448;SDS011;25151;45.566;9.382;2022-12-07T02:49:36;6.63;;;4.10;;
39448;SDS011;25151;45.566;9.382;2022-12-07T02:52:39;7.90;;;4.93;;
39448;SDS011;25151;45.566;9.382;2022-12-07T02:55:40;4.30;;;3.50;;
39448;SDS011;25151;45.566;9.382;2022-12-07T02:58:46;5.50;;;3.72;;
39448;SDS011;25151;45.566;9.382;2022-12-07T03:12:16;5.78;;;4.70;;
39448;SDS011;25151;45.566;9.382;2022-12-07T03:15:25;4.20;;;3.78;;
39448;SDS011;25151;45.566;9.382;2022-12-07T03:18:33;4.40;;;4.00;;
39448;SDS011;25151;45.566;9.382;2022-12-07T03:21:59;3.88;;;3.40;;
39448;SDS011;25151;45.566;9.382;2022-12-07T03:25:04;5.55;;;3.72;;
39448;SDS011;25151;45.566;9.382;2022-12-07T03:28:08;6.25;;;3.95;;
39448;SDS011;25151;45.566;9.382;2022-12-07T03:31:13;5.40;;;4.22;;
39448;SDS011;25151;45.566;9.382;2022-12-07T03:34:24;4.78;;;3.55;;
39448;SDS011;25151;45.566;9.382;2022-12-07T03:43:55;5.13;;;3.95;;
39448;SDS011;25151;45.566;9.382;2022-12-07T03:50:44;5.07;;;3.72;;
39448;SDS011;25151;45.566;9.382;2022-12-07T03:54:11;5.45;;;3.20;;
39448;SDS011;25151;45.566;9.382;2022-12-07T03:57:16;4.25;;;3.67;;
39448;SDS011;25151;45.566;9.382;2022-12-07T04:00:18;4.25;;;3.75;;
39448;SDS011;25151;45.566;9.382;2022-12-07T04:03:20;6.60;;;3.88;;
39448;SDS011;25151;45.566;9.382;2022-12-07T04:06:20;4.10;;;3.42;;
39448;SDS011;25151;45.566;9.382;2022-12-07T04:09:21;4.82;;;3.80;;
39448;SDS011;25151;45.566;9.382;2022-12-07T04:12:23;4.65;;;4.15;;
39448;SDS011;25151;45.566;9.382;2022-12-07T04:15:24;5.60;;;4.18;;
39448;SDS011;25151;45.566;9.382;2022-12-07T04:18:25;4.85;;;3.45;;
39448;SDS011;25151;45.566;9.382;2022-12-07T04:21:25;4.45;;;3.80;;
39448;SDS011;25151;45.566;9.382;2022-12-07T04:24:26;4.10;;;3.40;;
39448;SDS011;25151;45.566;9.382;2022-12-07T04:27:27;4.00;;;3.60;;
39448;SDS011;25151;45.566;9.382;2022-12-07T04:30:28;4.80;;;3.33;;
39448;SDS011;25151;45.566;9.382;2022-12-07T04:33:28;5.30;;;4.22;;
39448;SDS011;25151;45.566;9.382;2022-12-07T04:36:29;5.53;;;4.10;;
39448;SDS011;25151;45.566;9.382;2022-12-07T04:39:31;3.88;;;3.28;;
39448;SDS011;25151;45.566;9.382;2022-12-07T04:42:33;4.75;;;3.60;;
39448;SDS011;25151;45.566;9.382;2022-12-07T04:45:33;6.97;;;3.63;;
39448;SDS011;25151;45.566;9.382;2022-12-07T04:48:34;4.25;;;3.42;;
39448;SDS011;25151;45.566;9.382;2022-12-07T04:51:35;3.95;;;3.55;;
39448;SDS011;25151;45.566;9.382;2022-12-07T04:54:38;3.72;;;3.28;;
39448;SDS011;25151;45.566;9.382;2022-12-07T04:57:39;3.65;;;3.25;;
39448;SDS011;25151;45.566;9.382;2022-12-07T05:00:40;4.65;;;3.35;;
39448;SDS011;25151;45.566;9.382;2022-12-07T05:03:41;4.72;;;3.88;;
39448;SDS011;25151;45.566;9.382;2022-12-07T05:06:42;3.97;;;3.28;;
39448;SDS011;25151;45.566;9.382;2022-12-07T05:12:43;4.30;;;3.30;;
39448;SDS011;25151;45.566;9.382;2022-12-07T05:15:44;5.30;;;3.53;;
39448;SDS011;25151;45.566;9.382;2022-12-07T05:18:46;3.53;;;2.72;;
39448;SDS011;25151;45.566;9.382;2022-12-07T05:21:47;5.28;;;3.75;;
39448;SDS011;25151;45.566;9.382;2022-12-07T05:24:51;5.10;;;3.88;;
39448;SDS011;25151;45.566;9.382;2022-12-07T05:27:52;4.65;;;3.20;;
39448;SDS011;25151;45.566;9.382;2022-12-07T05:30:52;5.57;;;3.70;;
39448;SDS011;25151;45.566;9.382;2022-12-07T05:33:53;3.97;;;3.53;;
39448;SDS011;25151;45.566;9.382;2022-12-07T05:36:54;6.05;;;3.70;;
39448;SDS011;25151;45.566;9.382;2022-12-07T05:39:55;4.18;;;3.30;;
39448;SDS011;25151;45.566;9.382;2022-12-07T05:42:55;4.13;;;3.22;;
39448;SDS011;25151;45.566;9.382;2022-12-07T05:45:56;4.28;;;3.60;;
39448;SDS011;25151;45.566;9.382;2022-12-07T05:48:58;3.60;;;3.03;;
39448;SDS011;25151;45.566;9.382;2022-12-07T05:51:59;3.88;;;3.10;;
39448;SDS011;25151;45.566;9.382;2022-12-07T05:55:00;3.67;;;3.25;;
39448;SDS011;25151;45.566;9.382;2022-12-07T05:58:01;3.38;;;3.03;;
39448;SDS011;25151;45.566;9.382;2022-12-07T06:01:20;5.60;;;3.42;;
39448;SDS011;25151;45.566;9.382;2022-12-07T06:04:22;4.22;;;3.33;;
39448;SDS011;25151;45.566;9.382;2022-12-07T06:07:23;4.15;;;2.95;;
39448;SDS011;25151;45.566;9.382;2022-12-07T06:10:24;4.75;;;3.42;;
39448;SDS011;25151;45.566;9.382;2022-12-07T06:16:25;3.80;;;3.00;;
39448;SDS011;25151;45.566;9.382;2022-12-07T06:22:27;3.63;;;2.60;;
39448;SDS011;25151;45.566;9.382;2022-12-07T06:25:28;3.97;;;3.25;;
39448;SDS011;25151;45.566;9.382;2022-12-07T06:28:28;3.78;;;2.85;;
39448;SDS011;25151;45.566;9.382;2022-12-07T06:31:29;4.10;;;3.25;;
39448;SDS011;25151;45.566;9.382;2022-12-07T06:34:31;4.30;;;3.20;;
39448;SDS011;25151;45.566;9.382;2022-12-07T06:37:32;3.83;;;3.40;;
39448;SDS011;25151;45.566;9.382;2022-12-07T06:40:33;4.03;;;3.20;;
39448;SDS011;25151;45.566;9.382;2022-12-07T06:43:34;3.90;;;3.00;;
39448;SDS011;25151;45.566;9.382;2022-12-07T06:46:34;4.65;;;3.50;;
39448;SDS011;25151;45.566;9.382;2022-12-07T06:49:35;4.55;;;3.42;;
39448;SDS011;25151;45.566;9.382;2022-12-07T06:52:37;4.95;;;2.97;;
39448;SDS011;25151;45.566;9.382;2022-12-07T06:55:38;3.33;;;3.03;;
39448;SDS011;25151;45.566;9.382;2022-12-07T06:58:38;4.57;;;3.63;;
39448;SDS011;25151;45.566;9.382;2022-12-07T07:01:39;4.43;;;3.25;;
39448;SDS011;25151;45.566;9.382;2022-12-07T07:04:40;3.63;;;3.20;;
39448;SDS011;25151;45.566;9.382;2022-12-07T07:07:41;4.93;;;3.45;;
39448;SDS011;25151;45.566;9.382;2022-12-07T07:10:41;5.28;;;2.97;;
39448;SDS011;25151;45.566;9.382;2022-12-07T07:13:42;3.67;;;3.03;;
39448;SDS011;25151;45.566;9.382;2022-12-07T07:16:43;3.60;;;3.00;;
39448;SDS011;25151;45.566;9.382;2022-12-07T07:19:43;3.85;;;3.25;;
39448;SDS011;25151;45.566;9.382;2022-12-07T07:22:44;4.20;;;3.40;;
39448;SDS011;25151;45.566;9.382;2022-12-07T07:28:45;5.07;;;3.45;;
39448;SDS011;25151;45.566;9.382;2022-12-07T07:31:46;3.70;;;3.35;;
39448;SDS011;25151;45.566;9.382;2022-12-07T07:34:47;4.43;;;3.58;;
39448;SDS011;25151;45.566;9.382;2022-12-07T07:37:48;3.47;;;2.88;;
39448;SDS011;25151;45.566;9.382;2022-12-07T07:40:49;4.00;;;3.20;;
39448;SDS011;25151;45.566;9.382;2022-12-07T07:43:49;4.70;;;3.63;;
39448;SDS011;25151;45.566;9.382;2022-12-07T07:49:50;5.87;;;3.13;;
39448;SDS011;25151;45.566;9.382;2022-12-07T07:52:51;4.47;;;2.63;;
39448;SDS011;25151;45.566;9.382;2022-12-07T07:55:53;4.70;;;3.28;;
39448;SDS011;25151;45.566;9.382;2022-12-07T07:58:55;13.82;;;3.70;;
39448;SDS011;25151;45.566;9.382;2022-12-07T08:01:55;3.53;;;2.72;;
39448;SDS011;25151;45.566;9.382;2022-12-07T08:04:58;7.72;;;3.70;;
39448;SDS011;25151;45.566;9.382;2022-12-07T08:08:00;4.45;;;2.92;;
39448;SDS011;25151;45.566;9.382;2022-12-07T08:11:04;5.75;;;2.92;;
39448;SDS011;25151;45.566;9.382;2022-12-07T08:14:09;6.43;;;3.40;;
39448;SDS011;25151;45.566;9.382;2022-12-07T08:17:12;3.45;;;2.95;;
39448;SDS011;25151;45.566;9.382;2022-12-07T08:20:14;8.27;;;3.95;;
39448;SDS011;25151;45.566;9.382;2022-12-07T08:23:16;5.65;;;3.28;;
39448;SDS011;25151;45.566;9.382;2022-12-07T08:26:17;8.68;;;3.10;;
39448;SDS011;25151;45.566;9.382;2022-12-07T08:29:19;7.50;;;3.67;;
39448;SDS011;25151;45.566;9.382;2022-12-07T08:32:20;7.15;;;3.40;;
39448;SDS011;25151;45.566;9.382;2022-12-07T08:35:22;4.65;;;3.05;;
39448;SDS011;25151;45.566;9.382;2022-12-07T08:38:23;5.43;;;3.53;;
39448;SDS011;25151;45.566;9.382;2022-12-07T08:41:24;4.93;;;3.60;;
39448;SDS011;25151;45.566;9.382;2022-12-07T08:44:25;8.52;;;3.75;;
39448;SDS011;25151;45.566;9.382;2022-12-07T08:47:26;5.80;;;3.67;;
39448;SDS011;25151;45.566;9.382;2022-12-07T08:50:27;11.18;;;3.85;;
39448;SDS011;25151;45.566;9.382;2022-12-07T08:53:29;4.43;;;3.55;;
39448;SDS011;25151;45.566;9.382;2022-12-07T08:56:30;5.63;;;3.28;;
39448;SDS011;25151;45.566;9.382;2022-12-07T08:59:32;4.00;;;3.50;;
39448;SDS011;25151;45.566;9.382;2022-12-07T09:02:35;8.55;;;3.75;;
39448;SDS011;25151;45.566;9.382;2022-12-07T09:05:36;4.65;;;3.90;;
39448;SDS011;25151;45.566;9.382;2022-12-07T09:08:39;9.68;;;4.90;;
39448;SDS011;25151;45.566;9.382;2022-12-07T09:11:43;4.78;;;3.35;;
39448;SDS011;25151;45.566;9.382;2022-12-07T09:14:45;8.02;;;3.50;;
39448;SDS011;25151;45.566;9.382;2022-12-07T09:17:46;5.80;;;3.13;;
39448;SDS011;25151;45.566;9.382;2022-12-07T09:20:46;3.75;;;3.15;;
39448;SDS011;25151;45.566;9.382;2022-12-07T09:23:47;4.15;;;3.22;;
39448;SDS011;25151;45.566;9.382;2022-12-07T09:26:48;5.25;;;3.53;;
39448;SDS011;25151;45.566;9.382;2022-12-07T09:29:49;6.97;;;3.30;;
39448;SDS011;25151;45.566;9.382;2022-12-07T09:32:51;5.53;;;3.50;;
39448;SDS011;25151;45.566;9.382;2022-12-07T09:35:53;6.53;;;3.75;;
39448;SDS011;25151;45.566;9.382;2022-12-07T09:38:54;6.63;;;3.83;;
39448;SDS011;25151;45.566;9.382;2022-12-07T09:41:56;6.22;;;4.70;;
39448;SDS011;25151;45.566;9.382;2022-12-07T09:44:58;4.70;;;3.90;;
39448;SDS011;25151;45.566;9.382;2022-12-07T09:47:59;6.07;;;4.20;;
39448;SDS011;25151;45.566;9.382;2022-12-07T09:51:02;7.97;;;4.45;;
39448;SDS011;25151;45.566;9.382;2022-12-07T09:54:14;5.53;;;4.38;;
39448;SDS011;25151;45.566;9.382;2022-12-07T09:57:17;7.32;;;4.65;;
39448;SDS011;25151;45.566;9.382;2022-12-07T10:00:22;7.60;;;4.00;;
39448;SDS011;25151;45.566;9.382;2022-12-07T10:03:26;8.32;;;4.32;;
39448;SDS011;25151;45.566;9.382;2022-12-07T10:06:28;9.02;;;4.63;;
39448;SDS011;25151;45.566;9.382;2022-12-07T10:09:30;9.07;;;4.50;;
39448;SDS011;25151;45.566;9.382;2022-12-07T10:22:27;8.75;;;5.22;;
39448;SDS011;25151;45.566;9.382;2022-12-07T10:25:36;10.95;;;4.78;;
39448;SDS011;25151;45.566;9.382;2022-12-07T10:28:39;9.52;;;5.07;;
39448;SDS011;25151;45.566;9.382;2022-12-07T10:31:40;11.85;;;5.03;;
39448;SDS011;25151;45.566;9.382;2022-12-07T10:34:43;9.93;;;4.85;;
39448;SDS011;25151;45.566;9.382;2022-12-07T10:37:45;11.40;;;5.70;;
39448;SDS011;25151;45.566;9.382;2022-12-07T10:40:46;11.98;;;4.85;;
39448;SDS011;25151;45.566;9.382;2022-12-07T10:43:49;10.82;;;5.97;;
39448;SDS011;25151;45.566;9.382;2022-12-07T10:53:57;11.60;;;5.25;;
39448;SDS011;25151;45.566;9.382;2022-12-07T10:57:24;16.75;;;5.38;;
39448;SDS011;25151;45.566;9.382;2022-12-07T11:00:56;12.02;;;5.07;;
39448;SDS011;25151;45.566;9.382;2022-12-07T11:04:18;9.32;;;5.50;;
39448;SDS011;25151;45.566;9.382;2022-12-07T11:14:02;11.88;;;5.25;;
39448;SDS011;25151;45.566;9.382;2022-12-07T11:20:37;12.65;;;5.47;;
39448;SDS011;25151;45.566;9.382;2022-12-07T11:27:09;11.23;;;5.15;;
39448;SDS011;25151;45.566;9.382;2022-12-07T11:30:18;9.38;;;5.57;;
39448;SDS011;25151;45.566;9.382;2022-12-07T11:33:28;11.13;;;4.88;;
39448;SDS011;25151;45.566;9.382;2022-12-07T11:36:39;7.60;;;5.53;;
39448;SDS011;25151;45.566;9.382;2022-12-07T11:42:55;11.77;;;5.78;;
39448;SDS011;25151;45.566;9.382;2022-12-07T11:46:20;8.80;;;5.20;;
39448;SDS011;25151;45.566;9.382;2022-12-07T11:49:40;8.88;;;4.85;;
39448;SDS011;25151;45.566;9.382;2022-12-07T11:56:17;9.57;;;4.93;;
39448;SDS011;25151;45.566;9.382;2022-12-07T11:59:29;9.57;;;4.60;;
39448;SDS011;25151;45.566;9.382;2022-12-07T12:02:38;8.60;;;5.40;;
39448;SDS011;25151;45.566;9.382;2022-12-07T12:05:55;9.50;;;4.65;;
39448;SDS011;25151;45.566;9.382;2022-12-07T12:09:04;9.30;;;5.25;;
39448;SDS011;25151;45.566;9.382;2022-12-07T12:16:12;8.63;;;4.72;;
39448;SDS011;25151;45.566;9.382;2022-12-07T12:19:38;7.50;;;4.75;;
39448;SDS011;25151;45.566;9.382;2022-12-07T12:22:53;7.75;;;5.22;;
39448;SDS011;25151;45.566;9.382;2022-12-07T12:26:23;6.10;;;4.88;;
39448;SDS011;25151;45.566;9.382;2022-12-07T12:29:31;10.35;;;5.32;;
39448;SDS011;25151;45.566;9.382;2022-12-07T12:32:41;8.30;;;4.80;;
39448;SDS011;25151;45.566;9.382;2022-12-07T12:35:44;8.77;;;4.78;;
39448;SDS011;25151;45.566;9.382;2022-12-07T12:38:49;11.35;;;5.35;;
39448;SDS011;25151;45.566;9.382;2022-12-07T12:41:59;8.80;;;6.22;;
39448;SDS011;25151;45.566;9.382;2022-12-07T12:45:03;13.23;;;5.57;;
39448;SDS011;25151;45.566;9.382;2022-12-07T12:48:28;13.20;;;5.38;;
39448;SDS011;25151;45.566;9.382;2022-12-07T12:51:37;11.00;;;4.93;;
39448;SDS011;25151;45.566;9.382;2022-12-07T13:04:50;14.65;;;5.28;;
39448;SDS011;25151;45.566;9.382;2022-12-07T13:07:54;9.43;;;5.13;;
39448;SDS011;25151;45.566;9.382;2022-12-07T13:11:19;18.33;;;7.20;;
39448;SDS011;25151;45.566;9.382;2022-12-07T13:17:58;13.50;;;5.68;;
39448;SDS011;25151;45.566;9.382;2022-12-07T13:24:08;11.68;;;5.55;;
39448;SDS011;25151;45.566;9.382;2022-12-07T13:27:12;15.68;;;5.82;;
39448;SDS011;25151;45.566;9.382;2022-12-07T13:30:16;10.18;;;5.60;;
39448;SDS011;25151;45.566;9.382;2022-12-07T13:33:20;9.07;;;5.68;;
39448;SDS011;25151;45.566;9.382;2022-12-07T13:36:22;9.65;;;6.10;;
39448;SDS011;25151;45.566;9.382;2022-12-07T13:39:26;12.50;;;5.90;;
39448;SDS011;25151;45.566;9.382;2022-12-07T13:42:30;9.88;;;6.00;;
39448;SDS011;25151;45.566;9.382;2022-12-07T13:45:33;11.05;;;5.70;;
39448;SDS011;25151;45.566;9.382;2022-12-07T13:48:49;11.15;;;5.30;;
39448;SDS011;25151;45.566;9.382;2022-12-07T13:51:51;9.75;;;5.78;;
39448;SDS011;25151;45.566;9.382;2022-12-07T13:55:01;12.35;;;6.50;;
39448;SDS011;25151;45.566;9.382;2022-12-07T13:58:07;12.48;;;5.13;;
39448;SDS011;25151;45.566;9.382;2022-12-07T14:01:09;10.52;;;5.63;;
39448;SDS011;25151;45.566;9.382;2022-12-07T14:04:28;9.35;;;5.47;;
39448;SDS011;25151;45.566;9.382;2022-12-07T14:07:32;10.48;;;6.10;;
39448;SDS011;25151;45.566;9.382;2022-12-07T14:10:35;8.07;;;5.82;;
39448;SDS011;25151;45.566;9.382;2022-12-07T14:13:44;9.80;;;5.32;;
39448;SDS011;25151;45.566;9.382;2022-12-07T14:20:03;9.48;;;5.60;;
39448;SDS011;25151;45.566;9.382;2022-12-07T14:23:05;8.75;;;5.82;;
39448;SDS011;25151;45.566;9.382;2022-12-07T14:26:22;8.23;;;5.82;;
39448;SDS011;25151;45.566;9.382;2022-12-07T14:32:27;7.68;;;5.28;;
39448;SDS011;25151;45.566;9.382;2022-12-07T14:35:31;10.88;;;6.35;;
39448;SDS011;25151;45.566;9.382;2022-12-07T14:38:32;11.27;;;5.93;;
39448;SDS011;25151;45.566;9.382;2022-12-07T14:41:33;12.45;;;5.15;;
39448;SDS011;25151;45.566;9.382;2022-12-07T14:44:53;9.48;;;5.82;;
39448;SDS011;25151;45.566;9.382;2022-12-07T14:47:54;7.43;;;4.75;;
39448;SDS011;25151;45.566;9.382;2022-12-07T14:50:55;10.07;;;5.63;;
39448;SDS011;25151;45.566;9.382;2022-12-07T14:53:57;11.60;;;5.90;;
39448;SDS011;25151;45.566;9.382;2022-12-07T14:56:57;8.13;;;5.30;;
39448;SDS011;25151;45.566;9.382;2022-12-07T14:59:59;8.48;;;6.40;;
39448;SDS011;25151;45.566;9.382;2022-12-07T15:03:00;12.38;;;6.32;;
39448;SDS011;25151;45.566;9.382;2022-12-07T15:06:01;9.05;;;5.47;;
39448;SDS011;25151;45.566;9.382;2022-12-07T15:09:03;8.13;;;5.60;;
39448;SDS011;25151;45.566;9.382;2022-12-07T15:12:05;12.38;;;5.57;;
39448;SDS011;25151;45.566;9.382;2022-12-07T15:15:06;11.23;;;6.05;;
39448;SDS011;25151;45.566;9.382;2022-12-07T15:18:08;9.57;;;5.28;;
39448;SDS011;25151;45.566;9.382;2022-12-07T15:21:12;9.95;;;6.00;;
39448;SDS011;25151;45.566;9.382;2022-12-07T15:24:15;7.40;;;5.47;;
39448;SDS011;25151;45.566;9.382;2022-12-07T15:27:16;9.52;;;5.80;;
39448;SDS011;25151;45.566;9.382;2022-12-07T15:30:18;8.98;;;5.85;;
39448;SDS011;25151;45.566;9.382;2022-12-07T15:33:20;9.88;;;5.95;;
39448;SDS011;25151;45.566;9.382;2022-12-07T15:36:23;10.57;;;5.72;;
39448;SDS011;25151;45.566;9.382;2022-12-07T15:39:27;6.93;;;5.70;;
39448;SDS011;25151;45.566;9.382;2022-12-07T15:42:28;8.65;;;6.15;;
39448;SDS011;25151;45.566;9.382;2022-12-07T15:45:28;10.73;;;6.55;;
39448;SDS011;25151;45.566;9.382;2022-12-07T15:48:29;8.63;;;5.40;;
39448;SDS011;25151;45.566;9.382;2022-12-07T15:51:30;8.52;;;5.45;;
39448;SDS011;25151;45.566;9.382;2022-12-07T15:54:32;8.32;;;5.75;;
39448;SDS011;25151;45.566;9.382;2022-12-07T15:57:34;8.40;;;6.10;;
39448;SDS011;25151;45.566;9.382;2022-12-07T16:00:37;8.38;;;5.82;;
39448;SDS011;25151;45.566;9.382;2022-12-07T16:03:37;8.02;;;5.57;;
39448;SDS011;25151;45.566;9.382;2022-12-07T16:06:38;7.57;;;5.60;;
39448;SDS011;25151;45.566;9.382;2022-12-07T16:09:39;11.85;;;5.65;;
39448;SDS011;25151;45.566;9.382;2022-12-07T16:12:43;11.38;;;5.97;;
39448;SDS011;25151;45.566;9.382;2022-12-07T16:15:43;7.53;;;5.55;;
39448;SDS011;25151;45.566;9.382;2022-12-07T16:18:45;7.80;;;5.53;;
39448;SDS011;25151;45.566;9.382;2022-12-07T16:21:46;8.73;;;5.85;;
39448;SDS011;25151;45.566;9.382;2022-12-07T16:24:47;8.65;;;5.63;;
39448;SDS011;25151;45.566;9.382;2022-12-07T16:27:47;6.78;;;4.95;;
39448;SDS011;25151;45.566;9.382;2022-12-07T16:30:48;12.30;;;5.97;;
39448;SDS011;25151;45.566;9.382;2022-12-07T16:33:50;6.82;;;5.78;;
39448;SDS011;25151;45.566;9.382;2022-12-07T16:36:52;9.63;;;5.70;;
39448;SDS011;25151;45.566;9.382;2022-12-07T16:39:53;6.88;;;5.07;;
39448;SDS011;25151;45.566;9.382;2022-12-07T16:42:54;7.32;;;4.90;;
39448;SDS011;25151;45.566;9.382;2022-12-07T16:45:55;9.68;;;6.22;;
39448;SDS011;25151;45.566;9.382;2022-12-07T16:48:58;8.95;;;5.70;;
39448;SDS011;25151;45.566;9.382;2022-12-07T16:51:59;8.70;;;5.45;;
39448;SDS011;25151;45.566;9.382;2022-12-07T16:55:00;9.23;;;6.28;;
39448;SDS011;25151;45.566;9.382;2022-12-07T16:58:00;6.80;;;4.85;;
39448;SDS011;25151;45.566;9.382;2022-12-07T17:01:15;7.38;;;5.40;;
39448;SDS011;25151;45.566;9.382;2022-12-07T17:04:17;6.15;;;5.13;;
39448;SDS011;25151;45.566;9.382;2022-12-07T17:07:19;6.43;;;5.07;;
39448;SDS011;25151;45.566;9.382;2022-12-07T17:10:20;9.95;;;5.38;;
39448;SDS011;25151;45.566;9.382;2022-12-07T17:13:22;7.32;;;5.32;;
39448;SDS011;25151;45.566;9.382;2022-12-07T17:16:42;8.45;;;6.35;;
39448;SDS011;25151;45.566;9.382;2022-12-07T17:19:42;7.03;;;5.60;;
39448;SDS011;25151;45.566;9.382;2022-12-07T17:22:44;6.57;;;5.07;;
39448;SDS011;25151;45.566;9.382;2022-12-07T17:25:45;7.00;;;5.43;;
39448;SDS011;25151;45.566;9.382;2022-12-07T17:28:46;8.35;;;5.25;;
39448;SDS011;25151;45.566;9.382;2022-12-07T17:31:47;7.63;;;5.60;;
39448;SDS011;25151;45.566;9.382;2022-12-07T17:34:48;7.78;;;5.20;;
39448;SDS011;25151;45.566;9.382;2022-12-07T17:37:49;6.57;;;4.28;;
39448;SDS011;25151;45.566;9.382;2022-12-07T17:40:50;8.35;;;5.63;;
39448;SDS011;25151;45.566;9.382;2022-12-07T17:43:51;6.28;;;4.82;;
39448;SDS011;25151;45.566;9.382;2022-12-07T17:46:52;8.13;;;5.63;;
39448;SDS011;25151;45.566;9.382;2022-12-07T17:49:56;6.57;;;5.20;;
39448;SDS011;25151;45.566;9.382;2022-12-07T17:52:57;6.28;;;5.25;;
39448;SDS011;25151;45.566;9.382;2022-12-07T17:56:11;6.80;;;5.65;;
39448;SDS011;25151;45.566;9.382;2022-12-07T17:59:12;10.20;;;5.97;;
39448;SDS011;25151;45.566;9.382;2022-12-07T18:02:13;8.20;;;5.28;;
39448;SDS011;25151;45.566;9.382;2022-12-07T18:05:15;6.97;;;5.47;;
39448;SDS011;25151;45.566;9.382;2022-12-07T18:08:15;7.20;;;5.93;;
39448;SDS011;25151;45.566;9.382;2022-12-07T18:11:16;9.10;;;5.68;;
39448;SDS011;25151;45.566;9.382;2022-12-07T18:14:19;10.98;;;6.50;;
39448;SDS011;25151;45.566;9.382;2022-12-07T18:17:21;7.28;;;5.63;;
39448;SDS011;25151;45.566;9.382;2022-12-07T18:20:22;7.75;;;6.00;;
39448;SDS011;25151;45.566;9.382;2022-12-07T18:23:26;7.82;;;6.03;;
39448;SDS011;25151;45.566;9.382;2022-12-07T18:26:29;7.25;;;5.88;;
39448;SDS011;25151;45.566;9.382;2022-12-07T18:29:32;8.30;;;6.53;;
39448;SDS011;25151;45.566;9.382;2022-12-07T18:32:33;11.23;;;7.10;;
39448;SDS011;25151;45.566;9.382;2022-12-07T18:35:34;8.48;;;6.68;;
39448;SDS011;25151;45.566;9.382;2022-12-07T18:38:36;11.20;;;6.80;;
39448;SDS011;25151;45.566;9.382;2022-12-07T18:41:39;8.48;;;6.03;;
39448;SDS011;25151;45.566;9.382;2022-12-07T18:44:40;10.70;;;6.45;;
39448;SDS011;25151;45.566;9.382;2022-12-07T18:47:45;8.40;;;6.93;;
39448;SDS011;25151;45.566;9.382;2022-12-07T18:50:49;10.35;;;6.72;;
39448;SDS011;25151;45.566;9.382;2022-12-07T18:54:02;7.80;;;6.05;;
39448;SDS011;25151;45.566;9.382;2022-12-07T18:57:04;11.05;;;6.47;;
39448;SDS011;25151;45.566;9.382;2022-12-07T19:00:08;9.68;;;6.90;;
39448;SDS011;25151;45.566;9.382;2022-12-07T19:03:10;9.10;;;6.40;;
39448;SDS011;25151;45.566;9.382;2022-12-07T19:06:12;15.07;;;6.70;;
39448;SDS011;25151;45.566;9.382;2022-12-07T19:09:14;8.05;;;6.75;;
39448;SDS011;25151;45.566;9.382;2022-12-07T19:12:16;9.45;;;6.75;;
39448;SDS011;25151;45.566;9.382;2022-12-07T19:15:18;10.85;;;6.78;;
39448;SDS011;25151;45.566;9.382;2022-12-07T19:18:19;9.02;;;6.75;;
39448;SDS011;25151;45.566;9.382;2022-12-07T19:21:20;11.27;;;6.63;;
39448;SDS011;25151;45.566;9.382;2022-12-07T19:24:24;9.18;;;6.72;;
39448;SDS011;25151;45.566;9.382;2022-12-07T19:27:25;9.43;;;6.70;;
39448;SDS011;25151;45.566;9.382;2022-12-07T19:30:26;13.65;;;6.57;;
39448;SDS011;25151;45.566;9.382;2022-12-07T19:33:27;7.05;;;6.22;;
39448;SDS011;25151;45.566;9.382;2022-12-07T19:36:28;8.20;;;6.38;;
39448;SDS011;25151;45.566;9.382;2022-12-07T19:39:29;8.35;;;6.22;;
39448;SDS011;25151;45.566;9.382;2022-12-07T19:42:30;9.15;;;6.57;;
39448;SDS011;25151;45.566;9.382;2022-12-07T19:45:34;7.63;;;6.53;;
39448;SDS011;25151;45.566;9.382;2022-12-07T19:48:35;8.45;;;6.57;;
39448;SDS011;25151;45.566;9.382;2022-12-07T19:51:36;9.73;;;6.78;;
39448;SDS011;25151;45.566;9.382;2022-12-07T19:54:37;8.60;;;6.18;;
39448;SDS011;25151;45.566;9.382;2022-12-07T19:57:38;9.02;;;6.25;;
39448;SDS011;25151;45.566;9.382;2022-12-07T20:00:39;7.38;;;6.65;;
39448;SDS011;25151;45.566;9.382;2022-12-07T20:03:40;9.70;;;6.10;;
39448;SDS011;25151;45.566;9.382;2022-12-07T20:06:42;8.80;;;6.72;;
39448;SDS011;25151;45.566;9.382;2022-12-07T20:09:54;7.82;;;6.00;;
39448;SDS011;25151;45.566;9.382;2022-12-07T20:12:55;9.30;;;6.70;;
39448;SDS011;25151;45.566;9.382;2022-12-07T20:16:15;8.48;;;6.30;;
39448;SDS011;25151;45.566;9.382;2022-12-07T20:19:16;7.88;;;6.15;;